Time;durP1;ratioP1;P1;durP2;ratioP2;P2;SDS_P1;SDS_P2;PMS_P1;PMS_P2;Temp;Humidity;BMP_temperature;BMP_pressure;BME280_temperature;BME280_humidity;BME280_pressure;Samples;Min_cycle;Max_cycle;Signal;HPM_P1;HPM_P2
2022/01/15 00:01:53;;;;;;;79.90;20.23;;;3.90;99.90;;;;;;4984209;28;20207;-89
2022/01/15 00:04:20;;;;;;;73.43;18.40;;;3.90;99.90;;;;;;4988077;28;20805;-89
2022/01/15 00:06:56;;;;;;;70.63;18.53;;;;;;;;;;4983287;28;20566;-89
2022/01/15 00:10:00;;;;;;;82.50;20.33;;;4.00;99.90;;;;;;4984323;28;20253;-88
2022/01/15 00:12:29;;;;;;;82.77;21.17;;;;;;;;;;4979803;28;20214;-88
2022/01/15 00:14:55;;;;;;;88.73;21.30;;;4.00;99.90;;;;;;4976346;28;20235;-88
2022/01/15 00:17:43;;;;;;;97.90;22.03;;;4.00;99.90;;;;;;4978367;28;20257;-88
2022/01/15 00:20:10;;;;;;;69.90;18.53;;;;;;;;;;4977112;28;20238;-87
2022/01/15 00:22:39;;;;;;;85.70;19.33;;;;;;;;;;4991947;28;20693;-89
2022/01/15 00:25:07;;;;;;;83.90;21.10;;;4.20;99.90;;;;;;4995928;28;20286;-87
2022/01/15 00:27:34;;;;;;;87.30;19.47;;;;;;;;;;4995460;28;20232;-88
2022/01/15 00:30:03;;;;;;;85.80;20.87;;;;;;;;;;4994594;28;20215;-89
2022/01/15 00:32:30;;;;;;;79.57;19.13;;;;;;;;;;4996756;28;20211;-88
2022/01/15 00:35:00;;;;;;;96.53;19.97;;;;;;;;;;4998253;28;20600;-89
2022/01/15 00:37:30;;;;;;;92.97;21.00;;;;;;;;;;5002018;28;20243;-90
2022/01/15 00:39:59;;;;;;;94.07;19.57;;;;;;;;;;5017852;28;20183;-90
2022/01/15 00:42:27;;;;;;;56.90;14.57;;;;;;;;;;5001914;28;20206;-89
2022/01/15 00:44:55;;;;;;;78.33;18.73;;;4.20;99.90;;;;;;5014733;28;20191;-89
2022/01/15 00:47:23;;;;;;;84.13;21.20;;;4.20;99.90;;;;;;4995819;28;20230;-92
2022/01/15 00:49:49;;;;;;;71.07;19.87;;;4.20;99.90;;;;;;4996695;28;20207;-90
2022/01/15 00:52:17;;;;;;;79.00;21.03;;;;;;;;;;4996178;28;20202;-88
2022/01/15 00:54:44;;;;;;;78.13;19.60;;;;;;;;;;4995286;28;20230;-89
2022/01/15 00:57:13;;;;;;;80.57;19.23;;;;;;;;;;4996398;28;20205;-89
2022/01/15 00:59:39;;;;;;;89.83;20.53;;;4.30;99.90;;;;;;4976115;28;20210;-90
2022/01/15 01:02:07;;;;;;;87.10;20.73;;;;;;;;;;4975741;28;20618;-89
2022/01/15 01:04:34;;;;;;;99.73;20.97;;;;;;;;;;4975014;28;20215;-90
2022/01/15 01:07:04;;;;;;;93.57;21.07;;;;;;;;;;4975291;28;20199;-89
2022/01/15 01:09:50;;;;;;;74.07;19.43;;;;;;;;;;4976581;28;20570;-90
2022/01/15 01:12:30;;;;;;;81.50;19.47;;;;;;;;;;4979853;28;20210;-88
2022/01/15 01:20:58;;;;;;;76.67;19.20;;;4.40;99.90;;;;;;4953610;28;20204;-88
2022/01/15 01:23:24;;;;;;;89.30;21.20;;;4.30;99.90;;;;;;4999499;28;20257;-91
2022/01/15 01:25:57;;;;;;;73.03;18.53;;;4.30;99.90;;;;;;4996123;28;20285;-90
2022/01/15 01:28:30;;;;;;;78.57;19.50;;;4.30;99.90;;;;;;4993789;28;20674;-89
2022/01/15 01:31:02;;;;;;;79.67;20.83;;;4.20;99.90;;;;;;4993607;28;20290;-89
2022/01/15 01:33:34;;;;;;;75.87;19.60;;;4.20;99.90;;;;;;5010791;28;20254;-89
2022/01/15 01:36:10;;;;;;;88.93;20.67;;;;;;;;;;4993280;28;20265;-89
2022/01/15 01:38:43;;;;;;;84.67;20.33;;;4.20;99.90;;;;;;4993123;28;20218;-88
2022/01/15 01:41:15;;;;;;;85.93;20.33;;;5.30;99.90;;;;;;4993471;28;20210;-89
2022/01/15 01:43:51;;;;;;;81.13;20.33;;;4.40;99.90;;;;;;4993303;28;20296;-89
2022/01/15 01:46:31;;;;;;;81.00;20.27;;;4.40;99.90;;;;;;4993513;28;20198;-88
2022/01/15 01:49:01;;;;;;;75.63;19.33;;;4.50;99.90;;;;;;4993305;28;20333;-88
2022/01/15 01:51:31;;;;;;;78.97;19.50;;;4.50;99.90;;;;;;4993376;28;20807;-88
2022/01/15 01:53:59;;;;;;;84.10;19.77;;;4.60;99.90;;;;;;4996339;28;20646;-88
2022/01/15 01:56:26;;;;;;;88.27;20.50;;;4.60;99.90;;;;;;4994088;28;20213;-89
2022/01/15 01:58:55;;;;;;;74.30;18.73;;;4.60;99.90;;;;;;4994880;28;20259;-89
2022/01/15 02:01:22;;;;;;;87.63;19.20;;;4.60;99.90;;;;;;4992573;28;20241;-89
2022/01/15 02:03:49;;;;;;;79.13;18.83;;;4.60;99.90;;;;;;4993364;28;20227;-89
2022/01/15 02:06:17;;;;;;;76.67;18.57;;;4.60;99.90;;;;;;4992555;28;20195;-89
2022/01/15 02:08:45;;;;;;;80.00;18.80;;;;;;;;;;4992355;28;20340;-89
2022/01/15 02:11:12;;;;;;;75.70;18.37;;;4.60;99.90;;;;;;5000634;28;20653;-89
2022/01/15 02:13:42;;;;;;;81.00;19.40;;;4.70;99.90;;;;;;5009933;28;20234;-89
2022/01/15 02:16:11;;;;;;;78.53;18.23;;;4.70;99.90;;;;;;5001508;28;20697;-90
2022/01/15 02:18:39;;;;;;;79.67;20.23;;;4.60;99.90;;;;;;4993121;28;20293;-89
2022/01/15 02:23:54;;;;;;;73.00;18.73;;;4.70;99.90;;;;;;5009344;28;20229;-91
2022/01/15 02:26:24;;;;;;;81.97;20.33;;;4.70;99.90;;;;;;5011881;28;20203;-89
2022/01/15 02:28:57;;;;;;;71.40;19.00;;;5.30;99.90;;;;;;4994255;28;20238;-90
2022/01/15 02:31:25;;;;;;;72.23;18.97;;;4.70;99.90;;;;;;4993330;28;20211;-90
2022/01/15 02:33:55;;;;;;;87.30;20.27;;;4.70;99.90;;;;;;4991531;28;20227;-89
2022/01/15 02:36:25;;;;;;;88.97;21.10;;;4.70;99.90;;;;;;4992908;28;20574;-90
2022/01/15 02:38:53;;;;;;;79.03;19.73;;;4.70;99.90;;;;;;4992542;28;20233;-90
2022/01/15 02:41:29;;;;;;;86.30;19.43;;;4.70;99.90;;;;;;5010295;28;20624;-89
2022/01/15 02:43:57;;;;;;;86.47;20.70;;;4.80;99.90;;;;;;4991973;28;20228;-90
2022/01/15 02:46:35;;;;;;;75.07;18.40;;;4.80;99.90;;;;;;4992912;28;20214;-89
2022/01/15 02:49:06;;;;;;;84.90;19.87;;;4.80;99.90;;;;;;5016792;28;20206;-90
2022/01/15 02:51:36;;;;;;;78.33;18.73;;;4.90;99.90;;;;;;5001133;28;20213;-89
2022/01/15 02:54:05;;;;;;;69.40;17.13;;;4.70;99.90;;;;;;4993337;28;20238;-89
2022/01/15 02:56:34;;;;;;;75.00;19.07;;;4.80;99.90;;;;;;4992573;28;20202;-91
2022/01/15 02:59:03;;;;;;;70.00;17.60;;;4.90;99.90;;;;;;4984337;28;20731;-88
2022/01/15 03:01:31;;;;;;;79.97;19.00;;;;;;;;;;4992052;28;20624;-89
2022/01/15 03:03:58;;;;;;;91.93;20.57;;;4.90;99.90;;;;;;4991782;28;20285;-88
2022/01/15 03:06:25;;;;;;;87.10;19.53;;;4.90;99.90;;;;;;4992062;28;20277;-88
2022/01/15 03:08:54;;;;;;;87.90;19.30;;;6.00;99.90;;;;;;4995720;28;20202;-90
2022/01/15 03:11:22;;;;;;;90.93;20.13;;;4.80;99.90;;;;;;5001686;28;20215;-90
2022/01/15 03:13:50;;;;;;;76.23;19.10;;;4.80;99.90;;;;;;4995438;28;20614;-89
2022/01/15 03:16:19;;;;;;;79.93;19.83;;;4.70;99.90;;;;;;4992537;28;20210;-90
2022/01/15 03:18:47;;;;;;;80.63;18.83;;;4.70;99.90;;;;;;4992072;28;20210;-89
2022/01/15 03:21:16;;;;;;;80.57;18.37;;;4.80;99.90;;;;;;4992075;28;20324;-88
2022/01/15 03:23:44;;;;;;;92.77;19.57;;;4.80;99.90;;;;;;5011917;28;20223;-90
2022/01/15 03:26:14;;;;;;;68.27;16.77;;;;;;;;;;5005632;28;20693;-89
2022/01/15 03:28:43;;;;;;;76.57;17.80;;;4.90;99.90;;;;;;4993790;28;20237;-90
2022/01/15 03:31:10;;;;;;;89.93;19.53;;;4.90;99.90;;;;;;4992459;28;20268;-88
2022/01/15 03:33:38;;;;;;;78.77;18.17;;;4.90;99.90;;;;;;5009256;28;20853;-89
2022/01/15 03:36:06;;;;;;;65.17;15.83;;;5.30;99.90;;;;;;4993072;28;20301;-88
2022/01/15 03:38:33;;;;;;;81.33;19.60;;;4.90;99.90;;;;;;4992567;28;20199;-89
2022/01/15 03:41:00;;;;;;;91.93;19.07;;;4.80;99.90;;;;;;4992596;28;20611;-88
2022/01/15 03:43:28;;;;;;;67.83;16.60;;;4.80;99.90;;;;;;4992090;28;20226;-89
2022/01/15 03:45:55;;;;;;;70.77;16.93;;;;;;;;;;4995402;28;20215;-89
2022/01/15 03:48:24;;;;;;;58.80;14.90;;;4.80;99.90;;;;;;4995518;28;20210;-89
2022/01/15 03:50:51;;;;;;;65.70;16.57;;;4.90;99.90;;;;;;4995918;28;20214;-89
2022/01/15 03:53:20;;;;;;;65.93;16.43;;;4.70;99.90;;;;;;4995679;28;20248;-89
2022/01/15 03:55:47;;;;;;;72.00;17.40;;;4.70;99.90;;;;;;4995184;28;20329;-89
2022/01/15 03:58:14;;;;;;;56.57;15.27;;;4.80;99.90;;;;;;4996138;28;20608;-89
2022/01/15 04:00:43;;;;;;;64.23;17.13;;;5.90;99.90;;;;;;4995641;28;20207;-89
2022/01/15 04:03:10;;;;;;;63.33;15.07;;;5.10;99.90;;;;;;5009262;28;20213;-90
2022/01/15 04:05:37;;;;;;;63.67;15.63;;;4.80;99.90;;;;;;5018639;28;20191;-90
2022/01/15 04:08:06;;;;;;;60.97;14.83;;;4.80;99.90;;;;;;5019189;28;20197;-91
2022/01/15 04:10:33;;;;;;;38.30;10.53;;;4.80;99.90;;;;;;5036297;28;20186;-91
2022/01/15 04:13:00;;;;;;;39.63;11.27;;;4.70;99.90;;;;;;5021092;28;20333;-90
2022/01/15 04:15:33;;;;;;;37.50;10.43;;;4.70;99.90;;;;;;5015023;28;20226;-89
2022/01/15 04:18:02;;;;;;;41.60;11.77;;;;;;;;;;4998547;28;20203;-89
2022/01/15 04:20:29;;;;;;;36.70;10.77;;;;;;;;;;5001859;28;20191;-88
2022/01/15 04:23:04;;;;;;;39.73;9.83;;;4.80;99.90;;;;;;4985976;28;20238;-89
2022/01/15 04:25:31;;;;;;;41.33;11.73;;;;;;;;;;4977707;28;20201;-89
2022/01/15 04:28:03;;;;;;;37.10;9.77;;;4.80;99.90;;;;;;5006547;28;20217;-90
2022/01/15 04:30:35;;;;;;;38.13;11.87;;;4.70;99.90;;;;;;5001127;28;20248;-89
2022/01/15 04:33:03;;;;;;;50.10;14.80;;;4.70;99.90;;;;;;5000300;28;20235;-89
2022/01/15 04:35:30;;;;;;;53.37;13.67;;;5.40;99.90;;;;;;4998360;28;20223;-89
2022/01/15 04:38:03;;;;;;;42.43;12.43;;;4.70;99.90;;;;;;4995504;28;20213;-89
2022/01/15 04:40:31;;;;;;;57.53;15.23;;;4.70;99.90;;;;;;4994946;28;20202;-89
2022/01/15 04:42:57;;;;;;;55.70;15.47;;;4.70;99.90;;;;;;4994772;28;20241;-89
2022/01/15 04:45:24;;;;;;;52.40;14.70;;;4.60;99.90;;;;;;4994860;28;20202;-89
2022/01/15 04:47:51;;;;;;;49.57;13.50;;;4.60;99.90;;;;;;4994431;28;20750;-89
2022/01/15 04:50:22;;;;;;;60.33;15.20;;;;;;;;;;5011513;28;20222;-89
2022/01/15 04:52:49;;;;;;;58.57;15.17;;;4.60;99.90;;;;;;4994200;28;20225;-89
2022/01/15 04:55:16;;;;;;;51.90;13.73;;;4.60;99.90;;;;;;4993809;28;20237;-89
2022/01/15 04:57:43;;;;;;;59.33;15.10;;;4.70;99.90;;;;;;4993813;28;20245;-89
2022/01/15 05:00:14;;;;;;;49.67;12.90;;;4.50;99.90;;;;;;4994268;28;20210;-88
2022/01/15 05:02:41;;;;;;;107.20;22.57;;;4.50;99.90;;;;;;4994166;28;20313;-88
2022/01/15 05:05:09;;;;;;;52.20;14.10;;;4.50;99.90;;;;;;4993935;28;20202;-88
2022/01/15 05:07:38;;;;;;;52.00;13.93;;;4.50;99.90;;;;;;4993241;28;20328;-89
2022/01/15 05:10:06;;;;;;;53.40;13.90;;;4.70;99.90;;;;;;4994621;28;20218;-89
2022/01/15 05:12:41;;;;;;;50.07;13.53;;;4.40;99.90;;;;;;5012117;28;20207;-89
2022/01/15 05:15:09;;;;;;;54.60;13.67;;;4.40;99.90;;;;;;4993466;28;20228;-89
2022/01/15 05:17:36;;;;;;;50.37;14.13;;;4.40;99.90;;;;;;4994115;28;20221;-88
2022/01/15 05:20:04;;;;;;;56.83;14.77;;;5.30;99.90;;;;;;4993741;28;20203;-89
2022/01/15 05:22:33;;;;;;;61.80;15.77;;;4.20;99.90;;;;;;4993809;28;20670;-88
2022/01/15 05:25:02;;;;;;;48.80;13.63;;;4.20;99.90;;;;;;4993920;28;20264;-89
2022/01/15 05:27:29;;;;;;;51.70;14.67;;;4.20;99.90;;;;;;4993550;28;20206;-88
2022/01/15 05:29:56;;;;;;;55.83;14.07;;;;;;;;;;4994068;28;20694;-90
2022/01/15 05:32:24;;;;;;;55.33;15.03;;;;;;;;;;4993231;28;20199;-89
2022/01/15 05:34:51;;;;;;;57.43;15.37;;;4.00;99.90;;;;;;4996438;28;20237;-88
2022/01/15 05:37:18;;;;;;;45.43;11.97;;;;;;;;;;4995093;28;20214;-90
2022/01/15 05:39:46;;;;;;;50.90;13.73;;;;;;;;;;4994025;28;20567;-90
2022/01/15 05:42:14;;;;;;;51.83;13.90;;;3.90;99.90;;;;;;4993817;28;20207;-90
2022/01/15 05:44:41;;;;;;;57.87;14.80;;;3.80;99.90;;;;;;4993235;28;20694;-88
2022/01/15 05:47:08;;;;;;;51.23;14.00;;;3.80;99.90;;;;;;4994464;28;20205;-89
2022/01/15 05:49:35;;;;;;;47.50;12.83;;;7.50;99.90;;;;;;4995123;28;20198;-89
2022/01/15 05:52:03;;;;;;;52.40;14.03;;;3.70;99.90;;;;;;5001836;28;20647;-90
2022/01/15 05:54:30;;;;;;;53.10;14.50;;;3.70;99.90;;;;;;4999110;28;20238;-89
2022/01/15 05:56:57;;;;;;;41.10;10.70;;;4.10;99.90;;;;;;4994514;28;20717;-90
2022/01/15 05:59:25;;;;;;;45.20;12.27;;;3.60;99.90;;;;;;4995792;28;20209;-89
2022/01/15 06:01:52;;;;;;;48.63;12.20;;;3.60;99.90;;;;;;4997616;28;20214;-89
2022/01/15 06:04:19;;;;;;;56.50;14.80;;;3.50;99.90;;;;;;5006969;28;20237;-91
2022/01/15 06:06:49;;;;;;;47.07;13.07;;;3.40;99.90;;;;;;5016763;28;20210;-89
2022/01/15 06:09:16;;;;;;;50.97;13.50;;;;;;;;;;4996303;28;20203;-89
2022/01/15 06:11:44;;;;;;;40.73;10.00;;;;;;;;;;4995229;28;20217;-90
2022/01/15 06:14:11;;;;;;;55.10;13.37;;;;;;;;;;4994599;28;20238;-89
2022/01/15 06:16:39;;;;;;;43.67;12.30;;;3.30;99.90;;;;;;4999546;28;20279;-89
2022/01/15 06:19:06;;;;;;;40.73;11.67;;;3.30;99.90;;;;;;5001907;28;20218;-89
2022/01/15 06:21:33;;;;;;;57.87;13.97;;;3.20;99.90;;;;;;4995918;28;20199;-89
2022/01/15 06:24:00;;;;;;;44.40;12.67;;;3.20;99.90;;;;;;4994328;28;20605;-88
2022/01/15 06:26:32;;;;;;;48.53;14.00;;;3.10;99.90;;;;;;4993933;28;20199;-88
2022/01/15 06:28:59;;;;;;;47.67;12.10;;;4.80;99.90;;;;;;4993176;28;20293;-88
2022/01/15 06:31:28;;;;;;;42.20;9.67;;;3.00;99.90;;;;;;5005349;28;20221;-88
2022/01/15 06:33:56;;;;;;;42.13;12.67;;;2.90;99.90;;;;;;5000389;28;20229;-89
2022/01/15 06:36:24;;;;;;;39.80;11.80;;;2.90;99.90;;;;;;4995636;28;20249;-89
2022/01/15 06:38:52;;;;;;;37.50;11.57;;;2.80;99.90;;;;;;4995443;28;20206;-89
2022/01/15 06:41:19;;;;;;;45.67;13.10;;;2.80;99.90;;;;;;5013580;28;20195;-89
2022/01/15 06:43:47;;;;;;;54.40;14.63;;;2.80;99.90;;;;;;4993514;28;20237;-88
2022/01/15 06:46:14;;;;;;;48.60;14.07;;;2.80;99.90;;;;;;4993438;28;20202;-87
2022/01/15 06:48:41;;;;;;;50.00;13.73;;;;;;;;;;4994098;28;20213;-91
2022/01/15 06:51:09;;;;;;;45.63;12.17;;;2.90;99.90;;;;;;4993495;28;20207;-87
2022/01/15 06:53:37;;;;;;;51.40;13.07;;;2.90;99.90;;;;;;4993469;28;20237;-88
2022/01/15 06:56:06;;;;;;;56.83;15.60;;;3.30;99.90;;;;;;4995089;28;20241;-89
2022/01/15 06:58:33;;;;;;;56.57;12.90;;;2.90;99.90;;;;;;5011210;28;20191;-88
2022/01/15 07:01:00;;;;;;;51.20;13.73;;;2.80;99.90;;;;;;4994603;28;20314;-88
2022/01/15 07:03:28;;;;;;;41.97;11.50;;;2.70;99.90;;;;;;5011581;28;20234;-89
2022/01/15 07:05:55;;;;;;;46.93;14.70;;;2.70;99.90;;;;;;4996774;28;20685;-89
2022/01/15 07:08:24;;;;;;;33.57;9.20;;;;;;;;;;5027120;28;20209;-89
2022/01/15 07:11:04;;;;;;;45.13;13.03;;;2.70;99.90;;;;;;5017709;28;20183;-90
2022/01/15 07:13:34;;;;;;;55.73;14.50;;;2.70;99.90;;;;;;5016621;28;20234;-91
2022/01/15 07:16:01;;;;;;;58.80;15.13;;;;;;;;;;5008793;28;20221;-88
2022/01/15 07:18:28;;;;;;;63.50;16.40;;;2.80;99.90;;;;;;4995102;28;20217;-88
2022/01/15 07:20:55;;;;;;;52.37;14.70;;;3.50;99.90;;;;;;4997933;28;20257;-88
2022/01/15 07:23:24;;;;;;;69.43;17.27;;;3.10;99.90;;;;;;4997372;28;20234;-88
2022/01/15 07:25:51;;;;;;;60.57;16.50;;;3.00;99.90;;;;;;4998879;28;20274;-88
2022/01/15 07:28:20;;;;;;;61.47;17.33;;;3.10;99.90;;;;;;5014726;28;20197;-89
2022/01/15 07:30:50;;;;;;;67.63;16.23;;;3.20;99.90;;;;;;4998956;28;20305;-88
2022/01/15 07:33:17;;;;;;;57.37;14.37;;;3.20;99.90;;;;;;4993882;28;20229;-89
2022/01/15 07:35:45;;;;;;;66.67;17.70;;;3.30;99.90;;;;;;4996600;28;20238;-90
2022/01/15 07:38:13;;;;;;;70.17;18.40;;;3.40;99.90;;;;;;5013995;28;20252;-90
2022/01/15 07:40:42;;;;;;;67.83;16.67;;;3.50;99.90;;;;;;5012312;28;20202;-89
2022/01/15 07:43:09;;;;;;;77.43;18.53;;;3.50;99.90;;;;;;5007815;28;20233;-89
2022/01/15 07:45:36;;;;;;;59.97;16.27;;;3.40;99.90;;;;;;5003608;28;20242;-90
2022/01/15 07:48:04;;;;;;;67.37;17.77;;;3.40;99.90;;;;;;4986832;28;20221;-88
2022/01/15 07:50:31;;;;;;;70.70;18.00;;;3.40;99.90;;;;;;5008400;28;20207;-88
2022/01/15 07:52:58;;;;;;;82.07;19.57;;;3.40;99.90;;;;;;5009548;28;20215;-88
2022/01/15 07:55:26;;;;;;;67.43;17.00;;;3.40;99.90;;;;;;5014877;28;20211;-88
2022/01/15 07:57:55;;;;;;;42.93;10.37;;;3.30;99.90;;;;;;5009951;28;20200;-88
2022/01/15 08:00:22;;;;;;;55.40;14.00;;;3.20;99.90;;;;;;5012707;28;20222;-87
2022/01/15 08:02:51;;;;;;;59.60;16.17;;;3.20;99.90;;;;;;5019443;28;20215;-88
2022/01/15 08:05:18;;;;;;;58.57;15.87;;;3.20;99.90;;;;;;5020791;28;20187;-89
2022/01/15 08:07:45;;;;;;;71.37;17.50;;;3.30;99.90;;;;;;5020221;28;20254;-89
2022/01/15 08:10:11;;;;;;;50.93;14.97;;;3.30;99.90;;;;;;5009682;28;20207;-88
2022/01/15 08:12:44;;;;;;;55.03;15.23;;;3.50;99.90;;;;;;5027924;28;20207;-89
2022/01/15 08:15:13;;;;;;;59.23;16.67;;;3.40;99.90;;;;;;5003088;28;20211;-89
2022/01/15 08:17:40;;;;;;;55.53;15.60;;;3.50;99.90;;;;;;5000674;28;20223;-89
2022/01/15 08:20:07;;;;;;;62.87;15.40;;;3.50;99.90;;;;;;5003391;28;20220;-89
2022/01/15 08:22:34;;;;;;;65.87;16.73;;;3.60;99.90;;;;;;4998858;28;20211;-90
2022/01/15 08:25:01;;;;;;;55.20;14.50;;;3.60;99.90;;;;;;4999212;28;20222;-90
2022/01/15 08:27:28;;;;;;;60.50;16.87;;;3.40;99.90;;;;;;5014083;28;20211;-90
2022/01/15 08:29:56;;;;;;;68.83;17.87;;;;;;;;;;5014787;28;20641;-89
2022/01/15 08:32:24;;;;;;;53.87;15.27;;;;;;;;;;4986120;28;20266;-89
2022/01/15 08:34:51;;;;;;;47.53;13.40;;;;;;;;;;4991201;28;20207;-91
2022/01/15 08:37:19;;;;;;;47.47;14.20;;;3.90;99.90;;;;;;4997709;28;20233;-89
2022/01/15 08:39:46;;;;;;;50.40;14.37;;;3.90;99.90;;;;;;4997773;28;20214;-89
2022/01/15 08:42:12;;;;;;;59.00;15.80;;;3.80;99.90;;;;;;4995286;28;20258;-88
2022/01/15 08:44:42;;;;;;;55.07;15.53;;;3.90;99.90;;;;;;5000492;28;20239;-92
2022/01/15 08:47:10;;;;;;;50.47;15.07;;;4.00;99.90;;;;;;5010934;28;20236;-89
2022/01/15 08:49:41;;;;;;;52.87;15.10;;;4.10;99.90;;;;;;4997347;28;20237;-90
2022/01/15 08:52:08;;;;;;;48.03;14.50;;;4.10;99.90;;;;;;5001052;28;20203;-88
2022/01/15 08:54:37;;;;;;;63.97;17.20;;;4.00;99.90;;;;;;4987883;28;20231;-89
2022/01/15 08:57:06;;;;;;;59.90;16.73;;;3.90;99.90;;;;;;4992679;28;20223;-89
2022/01/15 08:59:33;;;;;;;54.47;15.67;;;3.90;99.90;;;;;;5016916;28;20214;-87
2022/01/15 09:02:02;;;;;;;50.57;12.50;;;4.00;99.90;;;;;;4996435;28;21459;-88
2022/01/15 09:04:30;;;;;;;64.30;17.13;;;;;;;;;;4996051;28;20590;-88
2022/01/15 09:06:58;;;;;;;60.37;16.27;;;;;;;;;;5010585;28;20210;-88
2022/01/15 09:09:25;;;;;;;40.40;10.93;;;4.10;99.90;;;;;;5011562;28;20214;-89
2022/01/15 09:11:52;;;;;;;54.53;15.77;;;5.60;99.90;;;;;;4991609;28;20735;-88
2022/01/15 09:14:20;;;;;;;40.87;10.50;;;4.00;99.90;;;;;;4993506;28;20584;-88
2022/01/15 09:16:47;;;;;;;44.20;11.10;;;3.90;99.90;;;;;;4995088;28;20236;-89
2022/01/15 09:19:14;;;;;;;52.97;15.87;;;3.80;99.90;;;;;;5002135;28;20741;-88
2022/01/15 09:21:41;;;;;;;43.30;12.63;;;3.80;99.90;;;;;;4989022;28;20231;-89
2022/01/15 09:24:09;;;;;;;57.30;15.47;;;3.80;99.90;;;;;;4986991;28;20261;-89
2022/01/15 09:26:49;;;;;;;46.73;13.97;;;3.80;99.90;;;;;;4983458;28;20236;-90
2022/01/15 09:32:02;;;;;;;55.80;14.93;;;3.90;99.90;;;;;;4998255;28;20575;-87
2022/01/15 09:34:29;;;;;;;57.40;15.23;;;4.30;99.90;;;;;;4985382;28;20245;-88
2022/01/15 09:36:56;;;;;;;58.20;16.07;;;3.90;99.90;;;;;;4997752;28;20241;-90
2022/01/15 09:39:25;;;;;;;43.00;11.13;;;3.90;99.90;;;;;;4993240;28;21017;-89
2022/01/15 09:41:54;;;;;;;39.77;11.37;;;3.90;99.90;;;;;;5013181;28;20202;-90
2022/01/15 09:44:22;;;;;;;42.90;11.73;;;4.00;99.90;;;;;;4996135;28;20240;-90
2022/01/15 09:46:50;;;;;;;32.10;9.30;;;4.20;99.90;;;;;;4989997;28;20210;-90
2022/01/15 09:49:18;;;;;;;56.50;15.23;;;3.90;99.90;;;;;;5013743;28;20195;-89
2022/01/15 09:51:46;;;;;;;47.43;14.53;;;4.00;99.90;;;;;;4995183;28;20202;-89
2022/01/15 09:54:14;;;;;;;40.43;12.43;;;4.10;99.90;;;;;;4997000;28;20232;-90
2022/01/15 09:56:42;;;;;;;45.73;13.00;;;4.20;99.90;;;;;;4995336;28;20255;-91
2022/01/15 09:59:09;;;;;;;38.37;11.43;;;;;;;;;;5010946;28;20944;-90
2022/01/15 10:01:38;;;;;;;38.43;11.13;;;;;;;;;;4995722;28;20213;-89
2022/01/15 10:04:09;;;;;;;44.13;12.47;;;4.30;99.90;;;;;;4999170;28;20309;-89
2022/01/15 10:06:38;;;;;;;39.57;12.73;;;;;;;;;;5001101;28;20218;-91
2022/01/15 10:09:07;;;;;;;51.73;13.37;;;4.50;99.90;;;;;;4995809;28;20206;-90
2022/01/15 10:11:44;;;;;;;38.30;12.10;;;4.50;99.90;;;;;;5002238;28;20211;-89
2022/01/15 10:14:24;;;;;;;29.10;8.47;;;;;;;;;;4999386;28;20226;-90
2022/01/15 10:16:52;;;;;;;29.97;9.60;;;;;;;;;;5000945;28;20264;-89
2022/01/15 10:19:32;;;;;;;37.67;10.33;;;4.30;99.90;;;;;;5002726;28;20198;-90
2022/01/15 10:22:09;;;;;;;38.60;12.10;;;4.30;99.90;;;;;;5004130;28;20236;-91
2022/01/15 10:24:39;;;;;;;33.40;9.43;;;4.40;99.90;;;;;;5003323;28;20956;-90
2022/01/15 10:27:26;;;;;;;31.90;10.27;;;4.40;99.90;;;;;;4998347;28;20207;-90
2022/01/15 10:30:02;;;;;;;43.47;12.53;;;4.50;99.90;;;;;;5002085;28;20202;-90
2022/01/15 10:32:30;;;;;;;46.23;10.60;;;4.60;99.90;;;;;;5001593;28;20765;-88
2022/01/15 10:34:58;;;;;;;46.43;13.57;;;4.60;99.90;;;;;;4999347;28;20199;-91
2022/01/15 10:37:48;;;;;;;46.83;12.90;;;4.60;99.90;;;;;;5005777;28;20245;-90
2022/01/15 10:40:16;;;;;;;38.97;9.97;;;4.60;99.90;;;;;;5025795;28;20210;-92
2022/01/15 10:42:50;;;;;;;48.43;13.20;;;3.90;99.90;;;;;;5016102;28;20207;-87
2022/01/15 10:45:22;;;;;;;43.93;12.90;;;;;;;;;;5018433;28;20203;-90
2022/01/15 10:47:53;;;;;;;40.97;12.57;;;5.00;99.90;;;;;;4993741;28;20211;-88
2022/01/15 10:50:22;;;;;;;42.47;12.23;;;5.00;99.90;;;;;;4994602;28;20242;-89
2022/01/15 10:52:50;;;;;;;45.10;11.97;;;4.90;99.90;;;;;;4987626;28;20310;-90
2022/01/15 10:55:18;;;;;;;50.83;12.33;;;5.00;99.90;;;;;;5005124;28;20219;-93
2022/01/15 10:57:56;;;;;;;44.47;12.07;;;5.00;99.90;;;;;;4986651;28;20223;-88
2022/01/15 11:00:28;;;;;;;45.90;12.33;;;5.00;99.90;;;;;;5003914;28;20290;-90
2022/01/15 11:03:04;;;;;;;40.73;11.13;;;4.90;99.90;;;;;;5012208;28;20871;-89
2022/01/15 11:05:38;;;;;;;40.47;12.93;;;4.90;99.90;;;;;;5009476;28;20312;-90
2022/01/15 11:08:15;;;;;;;39.73;11.17;;;4.90;99.90;;;;;;4988436;28;20207;-90
2022/01/15 11:10:47;;;;;;;40.57;12.20;;;5.10;99.90;;;;;;5010446;28;20203;-90
2022/01/15 11:13:18;;;;;;;49.13;13.23;;;5.20;99.90;;;;;;5006411;28;20234;-88
2022/01/15 11:15:47;;;;;;;43.50;11.57;;;5.20;99.90;;;;;;4992598;28;20207;-91
2022/01/15 11:18:19;;;;;;;40.33;12.03;;;5.20;99.90;;;;;;4992560;28;20231;-91
2022/01/15 11:20:49;;;;;;;43.40;12.60;;;5.30;99.90;;;;;;4990871;28;20655;-91
2022/01/15 11:23:19;;;;;;;39.30;10.80;;;5.30;99.90;;;;;;4985302;28;20949;-91
2022/01/15 11:25:46;;;;;;;46.13;12.67;;;7.10;99.90;;;;;;4985882;28;20214;-88
2022/01/15 11:28:15;;;;;;;44.00;12.40;;;;;;;;;;4999996;28;20206;-90
2022/01/15 11:30:44;;;;;;;40.67;12.20;;;5.70;99.90;;;;;;5002488;28;20219;-91
2022/01/15 11:33:13;;;;;;;50.23;12.77;;;5.70;99.90;;;;;;5002859;28;20223;-91
2022/01/15 11:35:46;;;;;;;40.33;11.83;;;5.70;99.90;;;;;;5004501;28;20226;-90
2022/01/15 11:38:33;;;;;;;39.00;11.50;;;5.80;99.90;;;;;;4991654;28;20249;-90
2022/01/15 11:41:00;;;;;;;36.03;11.27;;;5.90;99.90;;;;;;5000543;28;20760;-89
2022/01/15 11:43:52;;;;;;;37.63;11.40;;;7.10;99.90;;;;;;4999103;28;20243;-91
2022/01/15 11:46:27;;;;;;;45.70;11.57;;;6.10;99.90;;;;;;4981295;28;20215;-92
2022/01/15 11:49:28;;;;;;;39.53;12.03;;;6.10;99.90;;;;;;4982166;28;20206;-91
2022/01/15 11:51:56;;;;;;;47.30;12.43;;;6.10;99.90;;;;;;4988846;28;20689;-90
2022/01/15 11:54:23;;;;;;;39.73;10.80;;;6.10;99.90;;;;;;4992879;28;20274;-91
2022/01/15 11:56:50;;;;;;;39.50;10.50;;;6.00;99.90;;;;;;4990706;28;20235;-91
2022/01/15 11:59:48;;;;;;;39.23;10.07;;;5.70;99.90;;;;;;4993959;28;20230;-90
2022/01/15 12:02:29;;;;;;;45.63;10.47;;;5.60;99.90;;;;;;4989044;28;20226;-90
2022/01/15 12:05:11;;;;;;;49.60;13.13;;;5.60;99.90;;;;;;4987549;28;20215;-90
2022/01/15 12:07:38;;;;;;;40.33;11.63;;;6.30;99.90;;;;;;4990543;28;20214;-88
2022/01/15 12:10:06;;;;;;;47.53;13.07;;;5.60;99.90;;;;;;5011829;28;20210;-90
2022/01/15 12:12:45;;;;;;;47.07;12.30;;;5.60;99.90;;;;;;4992166;28;20223;-89
2022/01/15 12:15:19;;;;;;;51.87;12.77;;;5.50;99.90;;;;;;4993414;28;20238;-89
2022/01/15 12:17:50;;;;;;;40.33;10.67;;;5.60;99.90;;;;;;4995322;28;20256;-88
2022/01/15 12:20:36;;;;;;;36.60;10.80;;;5.60;99.90;;;;;;4992654;28;20207;-88
2022/01/15 12:23:23;;;;;;;37.40;10.87;;;5.60;99.90;;;;;;5005997;28;20241;-88
2022/01/15 12:25:52;;;;;;;39.80;11.80;;;5.60;99.90;;;;;;4991375;28;20218;-89
2022/01/15 12:28:19;;;;;;;44.23;11.77;;;5.70;99.90;;;;;;5010238;28;20265;-89
2022/01/15 12:30:50;;;;;;;40.97;10.80;;;6.20;99.90;;;;;;4991861;28;20216;-89
2022/01/15 12:33:19;;;;;;;38.97;11.33;;;6.00;99.90;;;;;;4995579;28;20249;-88
2022/01/15 12:35:47;;;;;;;45.23;12.63;;;5.90;99.90;;;;;;4992237;28;20220;-89
2022/01/15 12:38:16;;;;;;;43.30;12.20;;;6.00;99.90;;;;;;5013697;28;20245;-89
2022/01/15 12:40:45;;;;;;;34.43;9.37;;;6.20;99.90;;;;;;5016282;28;20210;-89
2022/01/15 12:43:16;;;;;;;32.83;9.13;;;6.10;99.90;;;;;;5008163;28;20231;-90
2022/01/15 12:45:43;;;;;;;37.87;10.77;;;6.10;99.90;;;;;;4993450;28;20226;-89
2022/01/15 12:48:17;;;;;;;36.97;10.67;;;6.70;99.90;;;;;;4989400;28;20211;-89
2022/01/15 12:50:46;;;;;;;41.07;11.00;;;5.90;99.90;;;;;;4978408;28;20301;-90
2022/01/15 12:53:15;;;;;;;41.97;10.43;;;5.80;99.90;;;;;;4981372;28;20322;-88
2022/01/15 12:55:42;;;;;;;46.03;12.33;;;5.70;99.90;;;;;;4995405;28;20294;-87
2022/01/15 12:58:11;;;;;;;44.07;12.13;;;5.80;99.90;;;;;;4996897;28;20226;-88
2022/01/15 13:00:39;;;;;;;40.67;11.33;;;5.80;99.90;;;;;;4982590;28;20203;-87
2022/01/15 13:03:07;;;;;;;50.27;13.50;;;5.80;99.90;;;;;;4997979;28;20285;-87
2022/01/15 13:05:37;;;;;;;54.33;13.50;;;5.90;99.90;;;;;;4996826;28;20210;-88
2022/01/15 13:08:06;;;;;;;45.83;11.60;;;7.30;99.90;;;;;;4985582;28;20211;-87
2022/01/15 13:10:37;;;;;;;46.63;11.77;;;5.90;99.90;;;;;;4996766;28;20243;-88
2022/01/15 13:13:04;;;;;;;45.73;10.87;;;5.80;99.90;;;;;;4985583;28;20690;-88
2022/01/15 13:15:32;;;;;;;46.80;11.27;;;5.70;99.90;;;;;;4980853;28;20239;-87